Time;durP1;ratioP1;P1;durP2;ratioP2;P2;SDS_P1;SDS_P2;PMS_P1;PMS_P2;Temp;Humidity;BMP_temperature;BMP_pressure;BME280_temperature;BME280_humidity;BME280_pressure;Samples;Min_cycle;Max_cycle;Signal;HPM_P1;HPM_P2
2023/05/19 00:00:18;;;;;;;44.43;32.70;;;;;;;40.62;37.28;101079.28;5013585;28;20439;-88
2023/05/19 00:02:45;;;;;;;33.10;28.60;;;;;;;40.57;37.38;101066.66;5013289;28;20428;-89
2023/05/19 00:05:17;;;;;;;34.23;27.07;;;;;;;40.61;37.40;101067.63;5013638;28;20875;-89
2023/05/19 00:07:45;;;;;;;35.70;28.27;;;;;;;40.62;37.42;101063.78;5002334;28;20424;-89
2023/05/19 00:10:11;;;;;;;38.90;27.90;;;;;;;40.61;37.25;101070.34;5013712;28;20465;-88
2023/05/19 00:12:37;;;;;;;35.87;30.73;;;;;;;40.50;37.16;101045.38;5014264;28;20424;-89
2023/05/19 00:15:04;;;;;;;31.83;27.13;;;;;;;40.54;37.21;101042.81;5013240;28;20428;-90
2023/05/19 00:17:30;;;;;;;30.63;26.53;;;;;;;40.55;37.04;101045.22;5013225;28;20428;-91
2023/05/19 00:19:56;;;;;;;33.17;29.10;;;;;;;40.53;37.22;101046.66;5013170;28;20503;-89
2023/05/19 00:22:22;;;;;;;35.77;30.27;;;;;;;40.54;37.54;101046.34;5013806;28;20632;-90
2023/05/19 00:24:48;;;;;;;39.20;27.00;;;;;;;40.47;37.45;101043.31;5013574;28;21046;-88
2023/05/19 00:27:14;;;;;;;40.77;30.20;;;;;;;40.48;37.17;101050.34;5013469;28;20433;-90
2023/05/19 00:29:40;;;;;;;44.43;34.10;;;;;;;40.44;37.45;101033.03;5013144;28;20523;-89
2023/05/19 00:32:06;;;;;;;48.70;39.60;;;;;;;40.40;37.46;101031.28;5013603;28;20967;-87
2023/05/19 00:34:32;;;;;;;59.50;50.00;;;;;;;40.44;37.62;101027.59;5012740;28;20216;-88
2023/05/19 00:36:58;;;;;;;50.70;46.20;;;;;;;40.41;37.55;101024.72;5013508;28;20463;-88
2023/05/19 00:39:24;;;;;;;53.90;41.83;;;;;;;40.42;37.14;101013.53;5012954;28;20434;-89
2023/05/19 00:41:50;;;;;;;43.57;39.33;;;;;;;40.47;37.35;101026.16;5013822;28;20215;-89
2023/05/19 00:44:16;;;;;;;41.37;36.50;;;;;;;40.43;37.05;101011.59;5013825;28;20471;-87
2023/05/19 00:46:43;;;;;;;41.33;37.90;;;;;;;40.49;36.98;101032.09;5013701;28;20965;-88
2023/05/19 00:49:09;;;;;;;40.10;32.50;;;;;;;40.46;37.07;101021.84;5013047;28;20181;-89
2023/05/19 00:51:36;;;;;;;35.10;33.40;;;;;;;40.41;37.59;101019.28;4992934;28;20476;-90
2023/05/19 00:54:03;;;;;;;31.43;29.50;;;;;;;40.31;37.65;101019.59;5007277;28;20459;-89
2023/05/19 00:56:30;;;;;;;39.07;30.57;;;;;;;40.34;37.18;101010.81;5013473;28;20421;-87
2023/05/19 00:58:57;;;;;;;38.03;28.47;;;;;;;40.37;37.21;101013.69;4995317;28;20449;-89
2023/05/19 01:01:25;;;;;;;28.27;26.20;;;;;;;40.44;37.19;101026.78;5013604;28;20421;-88
2023/05/19 01:03:52;;;;;;;37.87;25.50;;;;;;;40.43;36.95;101036.06;5012898;28;20964;-88
2023/05/19 01:06:19;;;;;;;28.80;23.60;;;;;;;40.20;37.25;101000.06;5012840;28;20464;-88
2023/05/19 01:08:45;;;;;;;31.03;22.30;;;;;;;40.32;37.21;101021.19;5012979;28;21009;-89
2023/05/19 01:11:11;;;;;;;25.27;21.87;;;;;;;40.40;37.41;101029.38;5012951;28;20459;-91
2023/05/19 01:13:37;;;;;;;27.47;23.97;;;;;;;40.42;37.46;101024.41;5012730;28;20475;-90
2023/05/19 01:16:06;;;;;;;31.33;24.53;;;;;;;40.34;37.57;101018.97;5012582;28;20940;-89
2023/05/19 01:18:54;;;;;;;30.10;23.53;;;;;;;40.37;37.34;101031.91;5012902;28;20480;-90
2023/05/19 01:21:50;;;;;;;23.60;20.17;;;;;;;40.37;37.67;101026.47;5012615;28;20448;-89
2023/05/19 01:24:32;;;;;;;29.43;21.17;;;;;;;40.37;37.25;101037.34;5005938;28;20448;-88
2023/05/19 01:27:29;;;;;;;37.20;24.80;;;;;;;40.26;37.66;101020.53;5012691;28;20432;-88
2023/05/19 01:30:07;;;;;;;36.90;25.80;;;;;;;40.31;37.74;101035.91;5012664;28;20459;-87
2023/05/19 01:32:34;;;;;;;37.37;27.70;;;;;;;40.36;37.51;101033.84;5012426;28;20440;-90
2023/05/19 01:35:03;;;;;;;48.13;36.47;;;;;;;40.37;37.56;101038.16;5012269;28;20421;-91
2023/05/19 01:37:29;;;;;;;54.70;46.07;;;;;;;40.40;37.74;101040.25;5012680;28;20867;-91
2023/05/19 01:39:56;;;;;;;65.83;50.13;;;;;;;40.24;37.43;101014.63;5011629;28;20454;-90
2023/05/19 01:42:22;;;;;;;61.90;54.00;;;;;;;40.32;37.39;101032.06;5012211;28;20436;-89
2023/05/19 01:44:50;;;;;;;53.97;51.10;;;;;;;40.35;37.67;101039.59;5011877;28;20538;-89
2023/05/19 01:47:16;;;;;;;55.83;47.23;;;;;;;40.33;37.28;101031.78;5012695;28;20976;-88
2023/05/19 01:49:42;;;;;;;49.67;47.27;;;;;;;40.40;37.24;101036.72;5011702;28;20436;-88
2023/05/19 01:52:07;;;;;;;53.97;44.77;;;;;;;40.35;37.12;101029.53;5011677;28;21008;-89
2023/05/19 01:54:33;;;;;;;48.47;43.43;;;;;;;40.25;37.49;101018.94;5012708;28;20212;-89
2023/05/19 01:57:21;;;;;;;45.57;38.60;;;;;;;40.32;37.47;101022.00;5011867;28;20432;-89
2023/05/19 02:00:08;;;;;;;49.70;33.57;;;;;;;40.36;37.11;101022.97;4998397;28;20516;-88
2023/05/19 02:02:55;;;;;;;28.50;22.67;;;;;;;40.38;37.13;101023.44;5008703;28;20429;-90
2023/05/19 02:05:29;;;;;;;35.70;21.57;;;;;;;40.38;36.81;101014.47;5006974;28;20468;-87
2023/05/19 02:08:10;;;;;;;23.37;18.67;;;;;;;40.33;37.11;101023.63;5013341;28;20440;-88
2023/05/19 02:10:42;;;;;;;23.73;17.30;;;;;;;40.35;37.17;101012.41;5011667;28;20451;-89
2023/05/19 02:13:12;;;;;;;24.40;16.33;;;;;;;40.32;36.85;101013.03;5011968;28;20455;-89
2023/05/19 02:15:43;;;;;;;21.53;16.23;;;;;;;40.36;36.71;101011.28;5011414;28;20478;-88
2023/05/19 02:18:10;;;;;;;23.93;15.70;;;;;;;40.25;37.07;101002.66;5011374;28;20439;-87
2023/05/19 02:20:38;;;;;;;17.93;14.43;;;;;;;40.35;37.22;101013.22;4999199;28;20486;-89
2023/05/19 02:23:05;;;;;;;22.07;15.83;;;;;;;40.31;36.77;101000.56;5011932;28;20456;-88
2023/05/19 02:25:33;;;;;;;17.57;13.80;;;;;;;40.34;37.23;101013.53;5011154;28;20464;-89
2023/05/19 02:27:59;;;;;;;19.97;14.40;;;;;;;40.31;36.84;101006.81;4993033;28;21008;-88
2023/05/19 02:30:25;;;;;;;18.23;13.60;;;;;;;40.33;36.76;101003.75;5011863;28;20436;-89
2023/05/19 02:32:52;;;;;;;22.87;14.30;;;;;;;40.28;36.92;101008.25;4993216;28;20441;-88
2023/05/19 02:35:19;;;;;;;15.67;12.57;;;;;;;40.26;36.91;100998.81;5011722;28;20476;-89
2023/05/19 02:37:45;;;;;;;17.37;13.73;;;;;;;40.24;36.68;100999.13;5011031;28;20432;-88
2023/05/19 02:40:11;;;;;;;18.27;12.40;;;;;;;40.16;36.92;100999.94;5011615;28;20443;-88
2023/05/19 02:42:37;;;;;;;21.73;12.40;;;;;;;40.15;37.00;100992.91;5011192;28;20424;-88
2023/05/19 02:45:04;;;;;;;19.13;12.73;;;;;;;40.17;36.83;100987.94;5011543;28;20471;-89
2023/05/19 02:47:29;;;;;;;20.10;11.63;;;;;;;40.09;36.79;100968.94;5010690;28;20434;-90
2023/05/19 02:49:55;;;;;;;16.37;11.27;;;;;;;40.09;36.76;100977.88;5011233;28;20433;-90
2023/05/19 02:52:21;;;;;;;17.20;9.33;;;;;;;40.09;36.69;100977.88;5011341;28;20244;-90
2023/05/19 02:54:47;;;;;;;13.10;9.90;;;;;;;40.14;36.85;100982.34;5007976;28;20556;-89
2023/05/19 02:57:13;;;;;;;19.50;11.23;;;;;;;40.16;36.84;100994.50;5027442;28;20456;-90
2023/05/19 02:59:39;;;;;;;14.50;10.80;;;;;;;40.16;36.73;100986.34;4994970;28;20494;-90
2023/05/19 03:02:05;;;;;;;18.00;10.97;;;;;;;40.14;37.00;100974.97;5005664;28;20424;-89
2023/05/19 03:04:40;;;;;;;21.33;10.80;;;;;;;40.10;36.84;100973.25;5011257;28;20817;-89
2023/05/19 03:07:09;;;;;;;15.43;11.63;;;;;;;40.09;36.81;100977.88;5011927;28;20840;-90
2023/05/19 03:09:39;;;;;;;21.63;16.87;;;;;;;40.09;36.74;100983.31;5012944;28;20939;-89
2023/05/19 03:12:06;;;;;;;22.77;16.77;;;;;;;40.10;36.80;100984.91;5010809;28;20452;-88
2023/05/19 03:14:33;;;;;;;21.57;15.47;;;;;;;40.14;36.93;100988.56;5012650;28;20447;-88
2023/05/19 03:17:00;;;;;;;23.93;13.10;;;;;;;40.07;36.57;100979.28;4978835;28;20872;-89
2023/05/19 03:19:26;;;;;;;17.70;13.60;;;;;;;40.04;36.60;100983.47;4995272;28;20960;-88
2023/05/19 03:21:53;;;;;;;19.53;13.57;;;;;;;40.15;36.82;100992.09;5010969;28;20433;-88
2023/05/19 03:24:18;;;;;;;18.40;12.60;;;;;;;39.99;37.16;100975.44;4994639;28;20519;-88
2023/05/19 03:26:44;;;;;;;17.47;10.70;;;;;;;40.09;36.64;100983.31;4994359;28;20507;-89
2023/05/19 03:29:10;;;;;;;18.87;13.13;;;;;;;39.98;37.02;100969.19;5013146;28;20480;-89
2023/05/19 03:31:36;;;;;;;21.00;12.73;;;;;;;40.00;36.79;100977.03;5014233;28;20479;-89
2023/05/19 03:34:02;;;;;;;18.47;11.00;;;;;;;40.04;36.66;100969.88;5014566;28;20227;-89
2023/05/19 03:36:30;;;;;;;21.90;12.83;;;;;;;39.98;36.99;100963.75;5014161;28;20474;-89
2023/05/19 03:38:57;;;;;;;19.10;13.40;;;;;;;40.06;36.99;100967.63;5014687;28;20424;-88
2023/05/19 03:41:23;;;;;;;18.00;12.30;;;;;;;40.14;37.16;100968.75;5013902;28;20439;-90
2023/05/19 03:43:49;;;;;;;17.83;12.93;;;;;;;40.14;37.08;100980.41;5015032;28;20948;-91
2023/05/19 03:46:15;;;;;;;23.90;14.60;;;;;;;40.05;37.17;100981.53;5013888;28;20535;-91
2023/05/19 03:48:41;;;;;;;21.60;15.20;;;;;;;40.10;37.30;100974.03;5014605;28;20544;-90
2023/05/19 03:51:07;;;;;;;21.80;16.67;;;;;;;40.09;37.19;100967.00;5013950;28;21059;-91
2023/05/19 03:53:33;;;;;;;22.77;17.03;;;;;;;40.11;36.96;100972.91;5013982;28;20736;-90
2023/05/19 03:56:00;;;;;;;23.40;16.90;;;;;;;40.01;37.21;100965.84;5013731;28;20432;-89
2023/05/19 03:58:25;;;;;;;21.23;16.17;;;;;;;40.12;36.98;100977.22;5014161;28;20523;-88
2023/05/19 04:00:51;;;;;;;26.47;17.70;;;;;;;40.13;37.35;100989.69;5013590;28;20507;-88
2023/05/19 04:03:17;;;;;;;29.80;18.00;;;;;;;40.12;37.35;100979.94;5014552;28;20725;-89
2023/05/19 04:05:43;;;;;;;20.70;16.07;;;;;;;40.09;37.16;100988.75;5013716;28;20206;-89
2023/05/19 04:08:09;;;;;;;20.17;14.73;;;;;;;40.02;37.16;100985.66;5013895;28;20435;-89
2023/05/19 04:10:35;;;;;;;22.30;16.07;;;;;;;39.90;37.31;100974.59;5013512;28;20428;-88
2023/05/19 04:13:02;;;;;;;18.60;14.10;;;;;;;39.97;37.57;100980.38;5013601;28;20531;-90
2023/05/19 04:15:28;;;;;;;24.30;17.43;;;;;;;39.94;37.21;100959.28;5014016;28;20189;-90
2023/05/19 04:17:54;;;;;;;22.13;14.33;;;;;;;39.95;37.41;100975.25;5013647;28;20421;-90
2023/05/19 04:20:20;;;;;;;28.33;15.77;;;;;;;39.89;37.68;100971.09;5013318;28;20452;-91
2023/05/19 04:22:46;;;;;;;21.40;14.70;;;;;;;40.03;37.67;100993.50;5013628;28;20479;-91
2023/05/19 04:25:12;;;;;;;21.67;12.60;;;;;;;40.07;37.53;100990.16;5013211;28;20463;-89
2023/05/19 04:27:38;;;;;;;16.13;12.57;;;;;;;39.96;37.64;100981.47;4997658;28;20185;-91
2023/05/19 04:30:05;;;;;;;21.37;13.73;;;;;;;40.01;37.42;100997.63;5013347;28;20510;-90
2023/05/19 04:32:31;;;;;;;16.47;10.87;;;;;;;40.08;37.50;101003.41;5013397;28;20189;-89
2023/05/19 04:34:58;;;;;;;21.43;13.30;;;;;;;40.01;37.23;101011.22;5014464;28;20486;-88
2023/05/19 04:37:25;;;;;;;16.27;10.63;;;;;;;40.03;37.33;101007.09;5016839;28;20511;-89
2023/05/19 04:39:51;;;;;;;20.27;11.47;;;;;;;40.00;37.58;101012.34;5014313;28;20440;-89
2023/05/19 04:42:20;;;;;;;22.43;13.30;;;;;;;40.05;37.51;101003.28;5013342;28;20444;-90
2023/05/19 04:44:48;;;;;;;19.03;13.67;;;;;;;39.93;37.48;101003.84;5013590;28;20471;-88
2023/05/19 04:47:14;;;;;;;21.93;14.30;;;;;;;39.98;37.66;101009.16;5013950;28;20945;-90
2023/05/19 04:49:40;;;;;;;18.50;13.00;;;;;;;39.89;37.78;101000.97;5012917;28;20424;-91
2023/05/19 04:52:09;;;;;;;24.70;15.60;;;;;;;39.96;37.47;101020.34;5013407;28;20480;-91
2023/05/19 04:54:36;;;;;;;20.80;14.50;;;;;;;39.98;37.42;101015.38;5012789;28;20475;-90
2023/05/19 04:57:02;;;;;;;24.80;14.80;;;;;;;40.01;37.86;101019.38;5012767;28;20448;-90
2023/05/19 04:59:28;;;;;;;32.93;22.47;;;;;;;39.92;37.83;101016.66;5026464;28;20516;-91
2023/05/19 05:01:55;;;;;;;36.53;25.43;;;;;;;39.85;37.75;101019.03;5009788;28;20531;-90
2023/05/19 05:04:21;;;;;;;35.70;25.17;;;;;;;39.89;37.68;101033.56;5012982;28;20447;-90
2023/05/19 05:06:47;;;;;;;31.20;23.93;;;;;;;39.91;37.59;101019.69;5013982;28;20424;-88
2023/05/19 05:09:14;;;;;;;36.17;25.80;;;;;;;39.88;37.49;101042.81;5012830;28;20448;-88
2023/05/19 05:11:40;;;;;;;43.67;26.17;;;;;;;39.86;37.66;101034.22;5018599;28;20419;-88
2023/05/19 05:14:07;;;;;;;32.97;25.17;;;;;;;39.81;37.96;101028.13;5000470;28;20806;-89
2023/05/19 05:16:33;;;;;;;31.87;23.60;;;;;;;39.88;37.79;101033.88;5012102;28;20428;-87
2023/05/19 05:19:03;;;;;;;33.87;22.10;;;;;;;39.97;37.66;101051.03;5013141;28;20526;-88
2023/05/19 05:21:30;;;;;;;32.37;24.77;;;;;;;39.98;37.71;101045.25;5014123;28;20924;-89
2023/05/19 05:23:56;;;;;;;38.33;24.83;;;;;;;39.88;37.80;101052.91;5013048;28;20432;-88
2023/05/19 05:26:28;;;;;;;36.77;26.70;;;;;;;39.87;38.10;101051.31;5012077;28;20452;-87
2023/05/19 05:28:54;;;;;;;35.53;28.83;;;;;;;39.78;37.83;101048.56;5013016;28;20463;-88
2023/05/19 05:31:20;;;;;;;45.73;29.47;;;;;;;39.75;38.17;101047.28;4998608;28;20429;-89
2023/05/19 05:33:46;;;;;;;31.73;24.23;;;;;;;39.88;37.86;101061.03;4993708;28;20435;-88
2023/05/19 05:36:34;;;;;;;31.70;23.00;;;;;;;39.87;37.74;101070.31;5011686;28;20439;-90
2023/05/19 05:39:01;;;;;;;33.67;23.13;;;;;;;39.86;38.27;101072.22;5011038;28;20428;-87
2023/05/19 05:41:33;;;;;;;26.70;20.00;;;;;;;39.79;37.70;101049.38;5012527;28;20535;-88
2023/05/19 05:44:00;;;;;;;25.17;20.23;;;;;;;39.98;37.60;101072.44;5012276;28;20436;-89
2023/05/19 05:46:26;;;;;;;24.33;20.90;;;;;;;39.95;37.89;101069.53;5006349;28;20914;-90
2023/05/19 05:48:53;;;;;;;33.50;24.50;;;;;;;39.95;37.52;101069.53;5006416;28;20424;-86
2023/05/19 05:51:22;;;;;;;30.60;24.30;;;;;;;39.91;37.83;101074.00;5011419;28;20475;-87
2023/05/19 05:53:53;;;;;;;24.10;19.90;;;;;;;39.87;38.20;101078.47;5007684;28;20497;-85
2023/05/19 05:56:20;;;;;;;24.47;20.20;;;;;;;39.81;38.01;101068.84;5010683;28;20871;-82
2023/05/19 05:58:48;;;;;;;27.00;20.80;;;;;;;39.87;38.08;101073.81;5011654;28;20479;-81
2023/05/19 06:01:15;;;;;;;31.27;20.80;;;;;;;39.76;37.95;101070.59;5011323;28;20527;-81
2023/05/19 06:03:45;;;;;;;27.53;20.20;;;;;;;39.86;38.04;101079.59;5004859;28;20421;-82
2023/05/19 06:06:12;;;;;;;34.33;20.03;;;;;;;39.85;37.92;101088.84;5011570;28;20980;-84
2023/05/19 06:08:38;;;;;;;23.20;17.17;;;;;;;39.74;37.94;101075.53;4993390;28;20949;-85
2023/05/19 06:11:07;;;;;;;22.80;19.60;;;;;;;39.82;37.94;101095.69;5003842;28;20440;-87
2023/05/19 06:13:36;;;;;;;29.83;19.30;;;;;;;39.92;37.94;101110.91;5011458;28;20216;-87
2023/05/19 06:16:03;;;;;;;28.90;20.27;;;;;;;39.90;37.82;101107.69;5016497;28;20424;-87
2023/05/19 06:18:45;;;;;;;20.87;17.53;;;;;;;39.87;37.36;101106.41;5020625;28;20948;-88
2023/05/19 06:21:47;;;;;;;27.63;19.20;;;;;;;40.00;37.31;101126.44;5014091;28;20863;-87
2023/05/19 06:24:13;;;;;;;26.57;20.10;;;;;;;40.02;37.30;101127.75;5014738;28;20420;-79
2023/05/19 06:26:39;;;;;;;26.83;21.27;;;;;;;39.96;37.61;101117.31;5010597;28;20459;-87
2023/05/19 06:29:05;;;;;;;28.50;22.30;;;;;;;39.96;37.27;101098.28;5011633;28;20606;-88
2023/05/19 06:31:32;;;;;;;31.97;21.47;;;;;;;40.16;36.93;101138.53;5011588;28;20452;-90
2023/05/19 06:33:58;;;;;;;26.70;20.23;;;;;;;40.20;36.88;101147.63;5009329;28;20432;-88
2023/05/19 06:36:24;;;;;;;22.83;18.07;;;;;;;40.20;36.89;101158.50;5010662;28;20499;-87
2023/05/19 06:38:50;;;;;;;26.30;17.97;;;;;;;40.12;37.14;101156.56;5011446;28;20428;-91
2023/05/19 06:41:16;;;;;;;20.53;16.23;;;;;;;39.92;37.34;101138.09;5003570;28;20440;-88
2023/05/19 06:43:42;;;;;;;19.10;15.57;;;;;;;40.03;37.04;101153.78;5007426;28;20417;-88
2023/05/19 06:46:09;;;;;;;22.63;16.10;;;;;;;40.03;36.70;101161.16;5002079;28;20874;-86
2023/05/19 06:48:37;;;;;;;20.37;15.53;;;;;;;39.98;37.12;101158.56;5007494;28;20429;-88
2023/05/19 06:51:03;;;;;;;26.50;18.87;;;;;;;40.06;37.06;101173.31;5008319;28;20448;-87
2023/05/19 06:53:30;;;;;;;23.27;15.83;;;;;;;40.00;36.94;101178.84;5017035;28;20478;-88
2023/05/19 06:55:56;;;;;;;17.97;14.87;;;;;;;39.97;36.74;101178.69;5011819;28;20440;-88
2023/05/19 06:58:22;;;;;;;28.93;16.70;;;;;;;40.01;37.01;101177.75;5003144;28;20508;-88
2023/05/19 07:00:48;;;;;;;25.30;16.20;;;;;;;40.16;37.24;101194.78;5001986;28;20437;-90
2023/05/19 07:03:13;;;;;;;20.60;16.07;;;;;;;40.11;36.84;101195.72;5010612;28;20436;-91
2023/05/19 07:05:40;;;;;;;23.63;14.37;;;;;;;40.16;36.89;101194.78;5013386;28;20255;-90
2023/05/19 07:08:07;;;;;;;18.10;13.20;;;;;;;40.16;36.82;101206.47;5014521;28;20276;-90
2023/05/19 07:10:33;;;;;;;22.40;14.20;;;;;;;40.26;37.01;101202.63;5014600;28;20459;-90
2023/05/19 07:12:59;;;;;;;20.63;16.87;;;;;;;40.16;37.10;101208.38;5014412;28;20448;-90
2023/05/19 07:15:25;;;;;;;19.00;14.60;;;;;;;40.01;36.85;101188.59;5013956;28;20421;-90
2023/05/19 07:17:52;;;;;;;19.63;14.17;;;;;;;40.08;37.20;101218.06;5015159;28;20428;-89
2023/05/19 07:20:19;;;;;;;23.10;17.57;;;;;;;40.15;37.64;101198.63;5007747;28;20851;-92
2023/05/19 07:22:45;;;;;;;19.80;14.40;;;;;;;39.98;37.30;101189.25;5018567;28;20455;-94
2023/05/19 07:25:12;;;;;;;24.10;16.50;;;;;;;40.11;37.42;101187.56;5019488;28;20471;-95
2023/05/19 07:27:38;;;;;;;18.63;13.93;;;;;;;40.16;37.23;101209.19;5004162;28;20437;-94
2023/05/19 07:30:05;;;;;;;18.03;13.90;;;;;;;40.04;37.40;101203.53;5013619;28;20424;-94
2023/05/19 07:32:31;;;;;;;21.70;15.30;;;;;;;40.14;37.48;101216.03;4995496;28;20432;-93
2023/05/19 07:35:04;;;;;;;21.07;13.07;;;;;;;40.15;37.21;101206.78;5015893;28;20432;-91
2023/05/19 07:37:33;;;;;;;17.97;11.70;;;;;;;40.16;37.21;101225.47;5022112;28;20435;-90
2023/05/19 07:40:05;;;;;;;23.40;11.50;;;;;;;40.06;37.60;101201.28;5011340;28;20456;-90
2023/05/19 07:42:38;;;;;;;18.63;13.10;;;;;;;40.39;37.88;101238.97;5015955;28;20424;-89
2023/05/19 07:45:10;;;;;;;20.40;14.03;;;;;;;40.39;37.58;101245.25;5001595;28;20492;-87
2023/05/19 07:47:47;;;;;;;19.00;13.23;;;;;;;40.42;37.66;101231.00;5024758;28;20481;-87
2023/05/19 07:50:27;;;;;;;17.80;12.40;;;;;;;40.36;37.48;101220.59;5023411;28;20436;-88
2023/05/19 07:53:03;;;;;;;20.50;13.27;;;;;;;40.58;37.18;101249.63;5026115;28;20481;-93
2023/05/19 07:55:29;;;;;;;16.30;9.90;;;;;;;40.47;37.06;101232.78;5013737;28;20972;-91
2023/05/19 07:58:07;;;;;;;12.77;8.63;;;;;;;40.53;36.95;101245.97;5027916;28;20423;-91
2023/05/19 08:00:57;;;;;;;17.80;10.67;;;;;;;40.30;37.38;101222.66;4998342;28;20441;-92
2023/05/19 08:03:48;;;;;;;16.10;10.17;;;;;;;40.53;37.32;101228.84;5030172;28;20415;-88
2023/05/19 08:06:16;;;;;;;14.17;10.63;;;;;;;40.35;37.25;101229.88;5020216;28;20452;-92
2023/05/19 08:08:55;;;;;;;20.20;9.93;;;;;;;40.48;37.43;101228.97;5022198;28;20443;-91
2023/05/19 08:11:30;;;;;;;18.20;10.47;;;;;;;40.78;37.35;101259.94;5007258;28;20491;-92
2023/05/19 08:14:01;;;;;;;17.03;8.83;;;;;;;40.71;37.67;101271.28;5012927;28;20456;-93
2023/05/19 08:16:32;;;;;;;17.20;12.00;;;;;;;40.60;37.57;101261.81;4996050;28;20876;-92
2023/05/19 08:19:01;;;;;;;17.07;10.60;;;;;;;40.58;37.30;101246.91;5019124;28;20482;-89
2023/05/19 08:21:27;;;;;;;13.20;10.50;;;;;;;40.72;37.34;101253.84;5016610;28;20475;-87
2023/05/19 08:23:54;;;;;;;19.73;11.73;;;;;;;40.84;37.20;101272.28;5011795;28;20490;-86
2023/05/19 08:26:20;;;;;;;14.50;10.20;;;;;;;40.76;37.61;101267.59;5010134;28;20460;-86
2023/05/19 08:28:55;;;;;;;14.47;9.50;;;;;;;40.79;37.61;101262.34;5013346;28;20425;-90
2023/05/19 08:31:23;;;;;;;15.87;10.03;;;;;;;40.85;37.55;101260.28;5012518;28;20815;-89
2023/05/19 08:33:49;;;;;;;15.03;9.73;;;;;;;40.88;37.45;101272.44;5013800;28;20437;-89
2023/05/19 08:36:15;;;;;;;17.43;10.03;;;;;;;40.95;37.34;101273.63;5013665;28;20458;-91
2023/05/19 08:38:41;;;;;;;13.23;7.97;;;;;;;40.82;37.67;101258.16;5013401;28;20801;-90
2023/05/19 08:41:07;;;;;;;15.20;9.17;;;;;;;40.79;36.97;101246.00;5011613;28;20429;-89
2023/05/19 08:43:34;;;;;;;13.37;9.93;;;;;;;40.98;36.93;101270.25;4994061;28;20434;-88
2023/05/19 08:45:59;;;;;;;15.23;10.53;;;;;;;41.01;37.71;101277.00;5004804;28;20530;-88
2023/05/19 08:48:30;;;;;;;13.93;9.10;;;;;;;40.87;37.47;101268.91;4976565;28;20946;-88
2023/05/19 08:50:58;;;;;;;14.37;9.40;;;;;;;41.06;37.12;101282.25;5008559;28;20429;-88
2023/05/19 08:53:35;;;;;;;14.10;9.77;;;;;;;41.03;36.72;101274.75;5012953;28;20468;-88
2023/05/19 08:56:10;;;;;;;14.83;8.97;;;;;;;41.04;37.00;101274.41;5012551;28;20427;-88
2023/05/19 08:58:42;;;;;;;18.53;8.20;;;;;;;41.13;36.72;101273.63;5012659;28;20451;-88
2023/05/19 09:01:10;;;;;;;13.13;8.03;;;;;;;41.20;36.80;101282.94;5015409;28;20439;-88
2023/05/19 09:03:37;;;;;;;19.23;8.93;;;;;;;41.16;36.78;101271.06;5000152;28;20437;-88
2023/05/19 09:06:07;;;;;;;19.10;9.33;;;;;;;41.21;36.83;101283.72;5010805;28;20987;-88
2023/05/19 09:08:34;;;;;;;15.53;10.33;;;;;;;41.17;36.68;101278.09;5006248;28;20508;-89
2023/05/19 09:11:00;;;;;;;16.30;8.50;;;;;;;41.11;36.97;101267.69;5004726;28;20932;-89
2023/05/19 09:13:26;;;;;;;11.27;6.00;;;;;;;41.21;36.72;101272.84;5005930;28;20510;-87
2023/05/19 09:15:52;;;;;;;10.83;7.30;;;;;;;40.92;36.67;101259.84;5000762;28;20507;-88
2023/05/19 09:18:18;;;;;;;17.97;7.63;;;;;;;41.36;36.38;101275.09;5013922;28;20436;-86
2023/05/19 09:20:45;;;;;;;14.30;8.70;;;;;;;41.38;36.27;101266.63;5008445;28;20425;-88
2023/05/19 09:23:13;;;;;;;12.77;8.43;;;;;;;41.38;36.01;101272.88;4997322;28;20683;-87
2023/05/19 09:25:52;;;;;;;12.10;8.03;;;;;;;41.17;36.71;101275.38;5012068;28;20471;-85
2023/05/19 09:28:26;;;;;;;12.63;7.20;;;;;;;41.35;36.21;101268.06;5012426;28;20855;-84
2023/05/19 09:31:07;;;;;;;11.20;6.13;;;;;;;41.42;35.92;101268.38;5011953;28;20424;-86
2023/05/19 09:33:39;;;;;;;14.33;6.20;;;;;;;41.43;35.91;101258.28;5005695;28;20432;-86
2023/05/19 09:36:07;;;;;;;8.77;4.70;;;;;;;41.36;35.43;101264.22;5000669;28;20845;-87
2023/05/19 09:38:35;;;;;;;13.47;5.53;;;;;;;41.49;35.38;101268.69;4995858;28;20420;-86
2023/05/19 09:41:01;;;;;;;9.63;5.17;;;;;;;41.47;35.01;101251.88;5011859;28;20940;-85
2023/05/19 09:43:32;;;;;;;9.50;4.43;;;;;;;41.55;35.10;101258.44;5012052;28;20421;-76
2023/05/19 09:46:05;;;;;;;10.63;6.20;;;;;;;41.56;35.42;101257.34;5007605;28;21030;-82
2023/05/19 09:48:31;;;;;;;9.73;5.40;;;;;;;41.65;35.27;101252.66;5010498;28;20975;-85
2023/05/19 09:50:59;;;;;;;9.60;5.30;;;;;;;41.60;35.34;101252.81;5009574;28;20450;-85
2023/05/19 09:53:26;;;;;;;9.10;5.37;;;;;;;41.51;35.10;101257.50;5001277;28;20473;-84
2023/05/19 09:55:58;;;;;;;10.33;5.43;;;;;;;41.70;34.93;101257.16;5001125;28;20437;-84
2023/05/19 09:58:25;;;;;;;11.27;6.10;;;;;;;41.76;35.02;101255.88;4994588;28;20418;-85
2023/05/19 10:00:53;;;;;;;9.50;5.90;;;;;;;41.84;35.64;101250.41;4993859;28;20484;-84
2023/05/19 10:03:22;;;;;;;11.63;6.47;;;;;;;41.84;35.42;101244.16;5000978;28;20884;-84
2023/05/19 10:05:50;;;;;;;11.57;6.40;;;;;;;41.84;35.31;101244.94;5009988;28;20543;-83
2023/05/19 10:08:16;;;;;;;11.40;7.20;;;;;;;41.91;35.62;101240.94;4996479;28;20457;-82
2023/05/19 10:10:46;;;;;;;18.20;7.40;;;;;;;41.86;35.75;101239.16;5004903;28;20475;-81
2023/05/19 10:13:12;;;;;;;15.47;7.37;;;;;;;41.83;36.15;101228.94;4998597;28;20472;-85
2023/05/19 10:15:41;;;;;;;13.90;8.30;;;;;;;41.82;35.76;101217.25;5015088;28;20431;-82
2023/05/19 10:18:09;;;;;;;15.93;7.47;;;;;;;41.86;35.82;101214.66;5011629;28;20498;-82
2023/05/19 10:20:36;;;;;;;13.13;7.90;;;;;;;41.82;35.68;101203.63;5006926;28;20487;-83
2023/05/19 10:23:02;;;;;;;12.90;6.50;;;;;;;41.84;35.96;101204.09;4994282;28;20444;-80
2023/05/19 10:25:32;;;;;;;15.53;9.77;;;;;;;41.95;36.04;101206.47;5010958;28;20460;-81
2023/05/19 10:28:12;;;;;;;15.30;7.00;;;;;;;41.99;35.93;101208.22;5009032;28;20451;-84
2023/05/19 10:30:42;;;;;;;11.30;5.90;;;;;;;42.01;35.86;101202.44;5007067;28;20432;-84
2023/05/19 10:33:12;;;;;;;11.23;6.27;;;;;;;41.97;35.39;101201.47;4991605;28;20429;-84
2023/05/19 10:35:57;;;;;;;10.30;5.40;;;;;;;41.95;35.51;101209.19;5002168;28;20480;-84
2023/05/19 10:39:01;;;;;;;11.10;7.20;;;;;;;41.96;35.83;101200.69;5010694;28;20400;-84
2023/05/19 10:41:52;;;;;;;14.00;7.07;;;;;;;41.99;35.73;101196.50;4999607;28;20408;-85
2023/05/19 10:44:27;;;;;;;13.30;7.70;;;;;;;42.08;35.86;101194.53;4996049;28;21021;-87
2023/05/19 10:46:53;;;;;;;18.03;7.23;;;;;;;42.08;36.10;101195.34;5007604;28;20420;-88
2023/05/19 10:49:22;;;;;;;13.73;6.83;;;;;;;42.04;36.10;101202.56;5005287;28;20459;-84
2023/05/19 10:51:50;;;;;;;16.33;6.60;;;;;;;41.99;36.19;101194.59;5010402;28;20450;-85
2023/05/19 10:54:17;;;;;;;12.83;6.57;;;;;;;42.02;36.05;101193.91;5009069;28;20472;-84
2023/05/19 10:56:47;;;;;;;18.10;7.30;;;;;;;41.95;35.80;101166.38;5013330;28;20413;-84
2023/05/19 10:59:33;;;;;;;13.50;7.40;;;;;;;42.14;35.79;101187.78;5006670;28;20539;-84
2023/05/19 11:02:07;;;;;;;19.90;7.13;;;;;;;42.16;35.98;101171.91;5008899;28;20522;-84
2023/05/19 11:04:46;;;;;;;13.73;7.80;;;;;;;42.13;36.01;101161.66;5010678;28;20432;-84
2023/05/19 11:07:20;;;;;;;13.17;6.77;;;;;;;42.13;35.77;101162.44;5009816;28;20440;-85
2023/05/19 11:09:51;;;;;;;15.13;7.30;;;;;;;42.13;36.16;101154.28;5011009;28;20810;-85
2023/05/19 11:12:24;;;;;;;13.83;7.00;;;;;;;42.16;36.01;101150.09;5025713;28;20430;-84
2023/05/19 11:14:54;;;;;;;13.93;7.17;;;;;;;42.15;35.85;101151.22;5002334;28;20468;-85
2023/05/19 11:17:21;;;;;;;14.03;7.77;;;;;;;42.16;36.26;101144.66;5007957;28;20804;-84
2023/05/19 11:19:58;;;;;;;12.30;8.13;;;;;;;42.22;35.93;101142.53;5010068;28;21002;-83